createdAt,value
2023-07-10T00:01:36.872Z,68.40
2023-07-10T00:11:39.695Z,69.10
2023-07-10T00:21:41.961Z,69.50
2023-07-10T00:31:43.802Z,69.80
2023-07-10T00:41:49.297Z,70.50
2023-07-10T00:52:06.761Z,72.10
2023-07-10T01:02:08.509Z,72.70
2023-07-10T01:12:10.413Z,73.50
2023-07-10T01:22:12.334Z,73.70
2023-07-10T01:32:17.854Z,74.20
2023-07-10T01:42:20.088Z,75.10
2023-07-10T01:52:23.372Z,75.40
2023-07-10T02:02:25.268Z,75.70
2023-07-10T02:12:27.119Z,75.50
2023-07-10T02:22:29.097Z,75.60
2023-07-10T02:32:30.867Z,75.70
2023-07-10T02:42:32.624Z,75.70
2023-07-10T02:52:34.350Z,75.80
2023-07-10T03:02:36.351Z,75.90
2023-07-10T03:12:38.161Z,75.70
2023-07-10T03:22:39.969Z,76.60
2023-07-10T03:32:41.760Z,76.80
2023-07-10T03:42:43.582Z,77.30
2023-07-10T03:52:45.311Z,78.00
2023-07-10T04:02:47.015Z,78.30
2023-07-10T04:12:48.722Z,78.40
2023-07-10T04:22:50.430Z,78.80
2023-07-10T04:32:52.261Z,79.40
2023-07-10T04:42:55.720Z,79.90
2023-07-10T04:52:57.409Z,80.50
2023-07-10T05:02:59.109Z,81.30
2023-07-10T05:13:00.875Z,81.90
2023-07-10T05:23:02.690Z,82.30
2023-07-10T05:33:07.028Z,82.30
2023-07-10T05:43:10.318Z,81.90
2023-07-10T05:53:12.072Z,81.30
2023-07-10T06:03:13.942Z,80.50
2023-07-10T06:13:15.933Z,80.00
2023-07-10T06:23:17.653Z,80.50
2023-07-10T06:33:19.441Z,80.80
2023-07-10T06:43:21.717Z,80.80
2023-07-10T06:53:27.031Z,81.10
2023-07-10T07:03:30.407Z,81.50
2023-07-10T07:13:32.130Z,81.50
2023-07-10T07:23:33.839Z,81.30
2023-07-10T07:33:35.600Z,81.10
2023-07-10T07:43:37.356Z,80.90
2023-07-10T07:53:42.264Z,81.00
2023-07-10T08:03:44.095Z,81.00
2023-07-10T08:13:46.043Z,80.50
2023-07-10T08:23:47.860Z,79.50
2023-07-10T08:33:49.672Z,78.10
2023-07-10T08:43:52.003Z,77.70
2023-07-10T08:54:04.727Z,77.00
2023-07-10T09:04:12.399Z,76.50
2023-07-10T09:14:51.909Z,76.10
2023-07-10T09:24:54.950Z,75.60
2023-07-10T09:34:59.947Z,75.30
2023-07-10T09:45:01.907Z,76.50
2023-07-10T09:55:09.686Z,76.30
2023-07-10T10:05:16.440Z,75.70
2023-07-10T10:15:29.144Z,75.60
2023-07-10T10:25:38.628Z,75.90
2023-07-10T10:35:46.062Z,73.90
2023-07-10T10:45:55.930Z,71.10
2023-07-10T10:56:26.277Z,69.80
2023-07-10T11:06:39.362Z,68.70
2023-07-10T11:16:41.689Z,69.00
2023-07-10T11:26:43.936Z,68.10
2023-07-10T11:36:48.202Z,67.60
2023-07-10T11:47:01.721Z,67.20
2023-07-10T11:57:15.998Z,65.80
2023-07-10T12:07:18.284Z,64.10
2023-07-10T12:37:29.998Z,59.10
2023-07-10T12:47:39.076Z,58.10
2023-07-10T12:57:50.143Z,56.50
2023-07-10T13:07:55.334Z,55.40
2023-07-10T13:17:57.350Z,54.10
2023-07-10T13:27:59.302Z,54.70
2023-07-10T13:38:01.119Z,54.20
2023-07-10T13:48:09.094Z,53.10
2023-07-10T13:58:20.545Z,51.80
2023-07-10T14:08:27.507Z,51.90
2023-07-10T14:18:30.459Z,53.00
2023-07-10T14:28:32.128Z,54.30
2023-07-10T14:38:33.857Z,54.00
2023-07-10T14:48:35.932Z,54.30
2023-07-10T14:58:38.553Z,52.30
2023-07-10T15:08:40.294Z,51.40
2023-07-10T15:18:43.246Z,50.50
2023-07-10T15:28:44.967Z,51.20
2023-07-10T15:38:47.249Z,52.10
2023-07-10T15:48:49.136Z,52.80
2023-07-10T15:58:50.875Z,52.60
2023-07-10T16:08:52.609Z,51.10
2023-07-10T16:18:55.298Z,49.00
2023-07-10T16:28:57.178Z,46.50
2023-07-10T16:38:58.899Z,46.40
2023-07-10T16:49:00.725Z,48.20
2023-07-10T16:59:02.427Z,49.20
2023-07-10T17:09:05.738Z,49.60
2023-07-10T17:19:07.735Z,47.80
2023-07-10T17:29:18.509Z,47.20
2023-07-10T17:39:27.070Z,47.40
2023-07-10T17:49:33.254Z,46.10
2023-07-10T17:59:35.977Z,46.00
2023-07-10T18:09:37.759Z,48.00
2023-07-10T18:19:39.885Z,49.90
2023-07-10T18:29:42.135Z,50.90
2023-07-10T18:39:44.873Z,52.20
2023-07-10T18:49:46.698Z,53.10
2023-07-10T18:59:48.514Z,54.00
2023-07-10T19:09:50.450Z,54.70
2023-07-10T19:19:54.211Z,55.30
2023-07-10T19:29:56.020Z,56.30
2023-07-10T19:39:59.022Z,57.20
2023-07-10T19:50:00.766Z,58.20
2023-07-10T20:00:02.778Z,59.40
2023-07-10T20:10:04.977Z,60.50
2023-07-10T20:20:37.361Z,62.00
2023-07-10T20:30:39.286Z,63.40
2023-07-10T20:40:41.230Z,63.80
2023-07-10T20:50:43.257Z,64.50
2023-07-10T21:00:46.629Z,65.20
2023-07-10T21:10:49.894Z,65.90
2023-07-10T21:20:52.277Z,66.70
2023-07-10T21:30:54.136Z,67.00
2023-07-10T21:40:57.695Z,67.70
2023-07-10T21:51:02.291Z,68.50
2023-07-10T22:01:04.125Z,69.20
2023-07-10T22:11:32.280Z,69.70
2023-07-10T22:21:35.752Z,70.90
2023-07-10T22:31:40.939Z,72.00
2023-07-10T22:41:44.374Z,72.80
2023-07-10T22:51:46.172Z,73.50
2023-07-10T23:01:50.036Z,73.90
2023-07-10T23:11:52.139Z,74.70
2023-07-10T23:21:53.897Z,75.60
2023-07-10T23:31:55.662Z,76.70
2023-07-10T23:41:57.385Z,77.30
2023-07-10T23:51:59.081Z,78.60
